Time;durP1;ratioP1;P1;durP2;ratioP2;P2;SDS_P1;SDS_P2;PMS_P1;PMS_P2;Temp;Humidity;BMP_temperature;BMP_pressure;BME280_temperature;BME280_humidity;BME280_pressure;Samples;Min_cycle;Max_cycle;Signal;HPM_P1;HPM_P2
2022/07/30 00:00:15;;;;;;;11.38;4.35;;;15.30;99.90;;;;;;5016863;28;20092;-68
2022/07/30 00:02:41;;;;;;;8.40;4.78;;;15.30;99.90;;;;;;5016731;28;20046;-69
2022/07/30 00:05:07;;;;;;;6.63;4.10;;;15.30;99.90;;;;;;5017468;28;20049;-68
2022/07/30 00:07:34;;;;;;;7.72;4.38;;;15.30;99.90;;;;;;5016898;28;20455;-68
2022/07/30 00:10:00;;;;;;;7.93;3.88;;;15.30;99.90;;;;;;5016641;28;20042;-68
2022/07/30 00:12:26;;;;;;;7.68;3.65;;;15.30;99.90;;;;;;5016600;28;20041;-68
2022/07/30 00:14:52;;;;;;;7.22;3.60;;;15.30;99.90;;;;;;5017084;28;20052;-68
2022/07/30 00:17:17;;;;;;;8.10;3.50;;;15.30;99.90;;;;;;5016496;28;20052;-69
2022/07/30 00:19:43;;;;;;;7.35;3.92;;;15.20;99.90;;;;;;5016845;28;20391;-68
2022/07/30 00:22:08;;;;;;;7.13;4.13;;;15.20;99.90;;;;;;5016436;28;20356;-68
2022/07/30 00:24:34;;;;;;;6.13;3.55;;;15.10;99.90;;;;;;5016425;28;20074;-68
2022/07/30 00:26:59;;;;;;;6.53;3.33;;;15.10;99.90;;;;;;5016230;28;20045;-69
2022/07/30 00:29:25;;;;;;;7.28;3.85;;;15.10;99.90;;;;;;5016860;28;20052;-69
2022/07/30 00:31:51;;;;;;;5.80;3.60;;;15.10;99.90;;;;;;5016301;28;20046;-68
2022/07/30 00:34:16;;;;;;;5.10;3.75;;;15.10;99.90;;;;;;5016464;28;20135;-68
2022/07/30 00:36:42;;;;;;;9.73;4.47;;;15.10;99.90;;;;;;5016339;28;20041;-68
2022/07/30 00:39:08;;;;;;;7.30;3.83;;;15.00;99.90;;;;;;5016215;28;20046;-69
2022/07/30 00:41:36;;;;;;;9.52;3.75;;;15.00;99.90;;;;;;5016115;28;20049;-69
2022/07/30 00:44:02;;;;;;;5.60;3.40;;;14.90;99.90;;;;;;5016510;28;20041;-69
2022/07/30 00:46:28;;;;;;;5.65;3.53;;;14.90;99.90;;;;;;5015966;28;20422;-69
2022/07/30 00:48:53;;;;;;;10.13;3.50;;;14.80;99.90;;;;;;4998903;28;20042;-68
2022/07/30 00:51:19;;;;;;;7.60;3.78;;;14.80;99.90;;;;;;5015938;28;20037;-69
2022/07/30 00:53:44;;;;;;;5.22;3.25;;;14.70;99.90;;;;;;5015831;28;20111;-69
2022/07/30 00:56:10;;;;;;;6.72;3.45;;;14.80;99.90;;;;;;4999083;28;20057;-68
2022/07/30 00:58:35;;;;;;;7.07;4.18;;;14.70;99.90;;;;;;5015214;28;20477;-68
2022/07/30 01:01:01;;;;;;;6.65;3.50;;;14.70;99.90;;;;;;5016168;28;20060;-68
2022/07/30 01:03:27;;;;;;;8.82;3.58;;;14.60;99.90;;;;;;5015552;28;20061;-69
2022/07/30 01:05:52;;;;;;;9.07;4.00;;;14.60;99.90;;;;;;5015979;28;20065;-68
2022/07/30 01:08:18;;;;;;;8.93;3.78;;;14.60;99.90;;;;;;5015537;28;20065;-68
2022/07/30 01:10:43;;;;;;;8.18;4.20;;;14.60;99.90;;;;;;5015614;28;20053;-68
2022/07/30 01:13:09;;;;;;;8.52;4.07;;;14.60;99.90;;;;;;5015517;28;20104;-69
2022/07/30 01:15:35;;;;;;;7.45;4.25;;;14.50;99.90;;;;;;5015574;28;20052;-68
2022/07/30 01:18:04;;;;;;;6.60;4.00;;;14.40;99.90;;;;;;5015757;28;20093;-69
2022/07/30 01:20:35;;;;;;;6.47;3.90;;;14.50;99.90;;;;;;5015783;28;20045;-69
2022/07/30 01:23:20;;;;;;;6.70;3.60;;;14.50;99.90;;;;;;5015565;28;20137;-69
2022/07/30 01:26:00;;;;;;;7.75;4.45;;;14.50;99.90;;;;;;5015344;28;20042;-69
2022/07/30 01:28:32;;;;;;;7.57;3.67;;;14.40;99.90;;;;;;5015711;28;20133;-68
2022/07/30 01:31:01;;;;;;;6.38;3.55;;;14.40;99.90;;;;;;4998523;28;20045;-68
2022/07/30 01:33:27;;;;;;;6.75;3.70;;;14.40;99.90;;;;;;5015476;28;20057;-68
2022/07/30 01:35:55;;;;;;;7.55;3.90;;;14.50;99.90;;;;;;5015077;28;20466;-68
2022/07/30 01:38:23;;;;;;;6.25;3.67;;;14.40;99.90;;;;;;5015213;28;20360;-68
2022/07/30 01:40:51;;;;;;;6.68;3.50;;;14.40;99.90;;;;;;5015226;28;20114;-68
2022/07/30 01:43:19;;;;;;;8.05;3.95;;;14.30;99.90;;;;;;5015321;28;20045;-69
2022/07/30 01:45:47;;;;;;;7.45;4.10;;;14.40;99.90;;;;;;5015031;28;20057;-68
2022/07/30 01:48:15;;;;;;;6.47;3.65;;;14.30;99.90;;;;;;5015099;28;20474;-68
2022/07/30 01:50:45;;;;;;;5.25;3.78;;;14.20;99.90;;;;;;5015236;28;20371;-68
2022/07/30 01:53:15;;;;;;;9.00;3.88;;;14.20;99.90;;;;;;5015103;28;20059;-69
2022/07/30 01:55:42;;;;;;;9.55;4.43;;;14.20;99.90;;;;;;5015435;28;20042;-69
2022/07/30 01:58:11;;;;;;;9.23;4.15;;;14.10;99.90;;;;;;5014911;28;20080;-68
2022/07/30 02:00:39;;;;;;;8.15;3.85;;;14.10;99.90;;;;;;5014924;28;20133;-69
2022/07/30 02:03:07;;;;;;;5.93;3.83;;;14.10;99.90;;;;;;5015081;28;20057;-68
2022/07/30 02:05:34;;;;;;;9.95;5.07;;;14.00;99.90;;;;;;5014874;28;20045;-68
2022/07/30 02:08:14;;;;;;;7.18;4.25;;;14.00;99.90;;;;;;5016066;28;20064;-69
2022/07/30 02:10:52;;;;;;;5.93;3.97;;;14.00;99.90;;;;;;5018788;28;20557;-68
2022/07/30 02:13:27;;;;;;;6.13;3.60;;;13.90;99.90;;;;;;5018927;28;20052;-68
2022/07/30 02:16:06;;;;;;;5.60;3.78;;;13.90;99.90;;;;;;5018769;28;20081;-68
2022/07/30 02:18:39;;;;;;;6.05;3.80;;;13.90;99.90;;;;;;5019359;28;20107;-68
2022/07/30 02:21:07;;;;;;;5.22;3.63;;;13.80;99.90;;;;;;5018626;28;20072;-68
2022/07/30 02:23:39;;;;;;;7.32;4.45;;;13.80;99.90;;;;;;5018701;28;20049;-68
2022/07/30 02:26:07;;;;;;;7.57;4.07;;;13.80;99.90;;;;;;5018555;28;20137;-68
2022/07/30 02:28:37;;;;;;;8.60;3.65;;;13.80;99.90;;;;;;5018587;28;20080;-68
2022/07/30 02:31:06;;;;;;;7.30;4.03;;;13.70;99.90;;;;;;5018514;28;20050;-68
2022/07/30 02:33:39;;;;;;;7.95;4.40;;;13.80;99.90;;;;;;5018388;28;20045;-68
2022/07/30 02:36:07;;;;;;;7.60;3.97;;;13.70;99.90;;;;;;5018549;28;20042;-68
2022/07/30 02:38:35;;;;;;;7.25;3.63;;;13.70;99.90;;;;;;5018327;28;20053;-69
2022/07/30 02:41:03;;;;;;;5.88;4.00;;;13.70;99.90;;;;;;5018377;28;20054;-68
2022/07/30 02:43:30;;;;;;;5.55;3.58;;;13.70;99.90;;;;;;5018871;28;20085;-69
2022/07/30 02:45:58;;;;;;;7.03;4.07;;;13.60;99.90;;;;;;5018137;28;20075;-68
2022/07/30 02:48:26;;;;;;;7.90;4.25;;;13.60;99.90;;;;;;5018792;28;20056;-68
2022/07/30 02:50:52;;;;;;;6.82;3.83;;;13.50;99.90;;;;;;5018187;28;20050;-69
2022/07/30 02:53:19;;;;;;;8.23;4.50;;;13.50;99.90;;;;;;5018045;28;20046;-68
2022/07/30 02:55:46;;;;;;;9.18;4.65;;;13.50;99.90;;;;;;5018723;28;20054;-68
2022/07/30 02:58:18;;;;;;;7.00;3.92;;;13.30;99.90;;;;;;5017926;28;20104;-68
2022/07/30 03:00:44;;;;;;;7.72;4.13;;;13.40;99.90;;;;;;5017924;28;20484;-68
2022/07/30 03:03:12;;;;;;;13.88;3.80;;;13.40;99.90;;;;;;5000588;28;20467;-68
2022/07/30 03:05:40;;;;;;;10.02;5.38;;;13.40;99.90;;;;;;5017670;28;20065;-68
2022/07/30 03:08:07;;;;;;;5.97;3.95;;;13.40;99.90;;;;;;5018147;28;20108;-68
2022/07/30 03:10:34;;;;;;;7.88;4.30;;;13.40;99.90;;;;;;5017820;28;20053;-68
2022/07/30 03:13:03;;;;;;;7.82;5.22;;;13.40;99.90;;;;;;5017856;28;20042;-68
2022/07/30 03:15:29;;;;;;;5.78;3.97;;;13.30;99.90;;;;;;5017609;28;20045;-68
2022/07/30 03:17:57;;;;;;;8.38;4.45;;;13.30;99.90;;;;;;5017674;28;20380;-68
2022/07/30 03:20:26;;;;;;;6.85;4.57;;;13.30;99.90;;;;;;5016955;28;20049;-68
2022/07/30 03:22:53;;;;;;;7.43;4.82;;;13.30;99.90;;;;;;5017688;28;20050;-69
2022/07/30 03:25:25;;;;;;;7.00;4.75;;;13.20;99.90;;;;;;5018090;28;20065;-68
2022/07/30 03:27:53;;;;;;;6.57;4.00;;;13.30;99.90;;;;;;5017540;28;20076;-69
2022/07/30 03:30:18;;;;;;;6.50;4.45;;;13.20;99.90;;;;;;5017332;28;20474;-68
2022/07/30 03:32:45;;;;;;;9.82;4.93;;;13.20;99.90;;;;;;5017354;28;20157;-68
2022/07/30 03:35:11;;;;;;;7.45;5.07;;;13.20;99.90;;;;;;5017814;28;20045;-68
2022/07/30 03:37:39;;;;;;;8.25;5.25;;;13.20;99.90;;;;;;5017781;28;20050;-68
2022/07/30 03:40:06;;;;;;;9.30;5.88;;;13.30;99.90;;;;;;5017281;28;20038;-68
2022/07/30 03:42:33;;;;;;;14.00;5.97;;;13.20;99.90;;;;;;5018038;28;20527;-68
2022/07/30 03:45:02;;;;;;;11.90;5.93;;;13.20;99.90;;;;;;5017314;28;20042;-68
2022/07/30 03:47:31;;;;;;;9.18;6.30;;;13.20;99.90;;;;;;5016970;28;20053;-68
2022/07/30 03:49:57;;;;;;;10.85;6.38;;;13.20;99.90;;;;;;5017130;28;20096;-68
2022/07/30 03:52:24;;;;;;;11.43;5.82;;;13.40;99.90;;;;;;5017233;28;20053;-68
2022/07/30 03:54:50;;;;;;;7.93;5.80;;;13.20;99.90;;;;;;5017529;28;20386;-68
2022/07/30 03:57:16;;;;;;;8.38;5.80;;;13.20;99.90;;;;;;5016734;28;20516;-68
2022/07/30 03:59:42;;;;;;;11.02;6.20;;;13.20;99.90;;;;;;5017517;28;20045;-68
2022/07/30 04:02:07;;;;;;;9.73;6.18;;;13.10;99.90;;;;;;5016725;28;20527;-68
2022/07/30 04:04:33;;;;;;;12.15;7.40;;;13.20;99.90;;;;;;5016804;28;20089;-68
2022/07/30 04:06:58;;;;;;;11.75;7.30;;;13.20;99.90;;;;;;5017313;28;20053;-68
2022/07/30 04:09:24;;;;;;;8.63;6.60;;;13.20;99.90;;;;;;5017263;28;20034;-69
2022/07/30 04:11:50;;;;;;;13.40;7.35;;;13.30;99.90;;;;;;5016696;28;20107;-68
2022/07/30 04:14:16;;;;;;;9.10;6.20;;;13.30;99.90;;;;;;5017231;28;20050;-68
2022/07/30 04:17:00;;;;;;;10.07;6.28;;;13.30;99.90;;;;;;4999949;28;20050;-68
2022/07/30 04:19:34;;;;;;;11.45;7.20;;;13.30;99.90;;;;;;5016548;28;20037;-68
2022/07/30 04:22:01;;;;;;;11.93;7.25;;;13.30;99.90;;;;;;5016332;28;20041;-67
2022/07/30 04:24:29;;;;;;;9.73;7.22;;;13.30;99.90;;;;;;5016311;28;20147;-68
2022/07/30 04:26:57;;;;;;;13.80;7.07;;;13.50;99.90;;;;;;5016293;28;20038;-68
2022/07/30 04:29:23;;;;;;;10.52;6.88;;;13.40;99.90;;;;;;5016798;28;20455;-68
2022/07/30 04:31:48;;;;;;;12.07;7.38;;;13.30;99.90;;;;;;5015882;28;20049;-68
2022/07/30 04:34:14;;;;;;;10.13;6.80;;;13.50;99.90;;;;;;5016117;28;20410;-68
2022/07/30 04:36:40;;;;;;;13.32;7.43;;;13.50;99.90;;;;;;4998986;28;20062;-68
2022/07/30 04:39:06;;;;;;;12.02;7.45;;;13.50;99.90;;;;;;5016201;28;20096;-68
2022/07/30 04:41:33;;;;;;;10.02;6.63;;;13.60;99.90;;;;;;5015772;28;20201;-68
2022/07/30 04:43:58;;;;;;;8.50;6.50;;;13.60;99.90;;;;;;5016353;28;20037;-68
2022/07/30 04:46:24;;;;;;;15.75;6.80;;;13.60;99.90;;;;;;5015964;28;20107;-68
2022/07/30 04:48:49;;;;;;;10.43;6.93;;;13.60;99.90;;;;;;5015995;28;20104;-68
2022/07/30 04:51:25;;;;;;;10.15;6.72;;;13.60;99.90;;;;;;5016616;28;20462;-68
2022/07/30 04:54:00;;;;;;;12.23;7.13;;;13.70;99.90;;;;;;5133419;27;20377;-69
2022/07/30 04:56:29;;;;;;;13.25;8.05;;;13.80;99.90;;;;;;5113063;28;20047;-69
2022/07/30 04:58:55;;;;;;;10.15;7.40;;;13.80;99.90;;;;;;5112695;28;20135;-69
2022/07/30 05:01:23;;;;;;;12.02;6.97;;;13.90;99.90;;;;;;5112711;28;20141;-69
2022/07/30 05:03:51;;;;;;;11.43;6.85;;;13.90;99.90;;;;;;5112639;28;20087;-70
2022/07/30 05:06:18;;;;;;;9.68;6.75;;;14.00;99.90;;;;;;5112723;28;20364;-69
2022/07/30 05:08:44;;;;;;;11.05;7.22;;;14.10;99.90;;;;;;5112520;28;20083;-69
2022/07/30 05:11:14;;;;;;;14.32;7.63;;;14.10;99.90;;;;;;5112853;28;20368;-69
2022/07/30 05:13:41;;;;;;;13.60;7.78;;;14.20;99.90;;;;;;5112811;28;20371;-69
2022/07/30 05:16:07;;;;;;;10.10;7.50;;;14.30;99.90;;;;;;5112218;28;20486;-69
2022/07/30 05:18:33;;;;;;;10.38;6.72;;;14.40;99.90;;;;;;5112477;28;20127;-69
2022/07/30 05:20:59;;;;;;;11.70;7.72;;;14.50;99.90;;;;;;5111743;28;20047;-69
2022/07/30 05:23:24;;;;;;;11.00;7.38;;;14.70;99.90;;;;;;5112156;28;20083;-69
2022/07/30 05:25:50;;;;;;;12.52;8.05;;;15.00;99.90;;;;;;5112226;28;20043;-69
2022/07/30 05:28:15;;;;;;;12.52;8.82;;;15.30;99.90;;;;;;5112182;28;20364;-69
2022/07/30 05:30:41;;;;;;;10.70;7.47;;;15.70;99.90;;;;;;5112409;28;20118;-69
2022/07/30 05:33:06;;;;;;;13.05;7.97;;;16.00;99.90;;;;;;5112004;28;20043;-70
2022/07/30 05:35:32;;;;;;;16.05;9.02;;;16.20;99.90;;;;;;5112167;28;20055;-69
2022/07/30 05:37:59;;;;;;;11.93;8.65;;;17.00;99.90;;;;;;5111911;28;20051;-70
2022/07/30 05:40:24;;;;;;;16.40;10.13;;;18.20;99.90;;;;;;5112515;28;20044;-70
2022/07/30 05:42:50;;;;;;;12.45;10.02;;;19.50;99.90;;;;;;5112260;28;20405;-70
2022/07/30 05:45:15;;;;;;;10.85;7.53;;;20.60;99.90;;;;;;5112443;28;20456;-69
2022/07/30 05:47:41;;;;;;;9.35;7.78;;;21.50;99.90;;;;;;5111709;28;20051;-70
2022/07/30 05:50:07;;;;;;;12.55;6.78;;;22.30;99.90;;;;;;5111949;28;20039;-70
2022/07/30 05:52:33;;;;;;;10.73;6.72;;;23.10;99.90;;;;;;5111840;28;20356;-71
2022/07/30 05:54:59;;;;;;;11.63;5.72;;;23.70;99.90;;;;;;5112164;28;20111;-70
2022/07/30 05:57:24;;;;;;;13.18;6.70;;;24.30;99.90;;;;;;5112192;28;20436;-70
2022/07/30 05:59:50;;;;;;;7.75;4.50;;;24.90;99.90;;;;;;5111515;28;20036;-70
2022/07/30 06:02:16;;;;;;;11.27;5.18;;;25.40;99.90;;;;;;5111553;28;20464;-70
2022/07/30 06:04:41;;;;;;;7.38;4.68;;;25.70;99.90;;;;;;5101598;28;20047;-71
2022/07/30 06:07:07;;;;;;;11.10;5.55;;;26.10;99.90;;;;;;5097251;28;20453;-71
2022/07/30 06:09:32;;;;;;;9.80;5.80;;;26.40;99.90;;;;;;5098296;28;20340;-71
2022/07/30 06:11:58;;;;;;;8.32;4.28;;;26.60;99.80;;;;;;5097428;28;20132;-67
2022/07/30 06:14:24;;;;;;;9.70;4.35;;;26.90;98.00;;;;;;5098307;28;20048;-67
2022/07/30 06:16:49;;;;;;;10.75;5.38;;;27.10;98.50;;;;;;5097715;28;20044;-67
2022/07/30 06:19:15;;;;;;;10.30;5.95;;;27.70;98.20;;;;;;5098286;28;20185;-68
2022/07/30 06:21:40;;;;;;;8.05;4.68;;;27.90;97.60;;;;;;5097451;28;20039;-68
2022/07/30 06:24:06;;;;;;;7.57;5.03;;;27.80;96.90;;;;;;5097558;28;20044;-67
2022/07/30 06:26:32;;;;;;;8.93;4.80;;;28.20;97.20;;;;;;5098061;28;20032;-68
2022/07/30 06:28:57;;;;;;;8.65;4.22;;;28.70;96.60;;;;;;5097640;28;20082;-68
2022/07/30 06:31:23;;;;;;;7.70;4.63;;;28.80;95.50;;;;;;5096876;28;20081;-68
2022/07/30 06:33:49;;;;;;;10.65;4.70;;;28.70;95.00;;;;;;5097190;28;20048;-69
2022/07/30 06:36:14;;;;;;;7.55;4.18;;;28.70;94.90;;;;;;5097264;28;20059;-67
2022/07/30 06:38:40;;;;;;;5.22;3.53;;;28.80;95.20;;;;;;5097296;28;20048;-68
2022/07/30 06:41:06;;;;;;;5.75;3.17;;;29.10;95.40;;;;;;5097815;28;20119;-68
2022/07/30 06:43:32;;;;;;;5.93;3.70;;;29.20;95.20;;;;;;5096695;28;20052;-67
2022/07/30 06:45:57;;;;;;;7.75;3.95;;;29.70;94.70;;;;;;5097705;28;20047;-68
2022/07/30 06:48:23;;;;;;;7.82;3.67;;;29.90;94.50;;;;;;5097696;28;20131;-69
2022/07/30 06:50:48;;;;;;;8.45;3.70;;;29.90;94.20;;;;;;5097575;28;20044;-69
2022/07/30 06:53:14;;;;;;;6.78;3.60;;;30.20;94.30;;;;;;5097152;28;20484;-69
2022/07/30 06:55:39;;;;;;;7.03;3.55;;;29.80;93.70;;;;;;5096925;28;20089;-69
2022/07/30 06:58:05;;;;;;;11.18;3.97;;;29.80;93.80;;;;;;5096830;28;20464;-68
2022/07/30 07:00:31;;;;;;;8.88;3.85;;;29.80;94.80;;;;;;5096849;28;20353;-68
2022/07/30 07:02:56;;;;;;;5.65;3.20;;;29.90;94.50;;;;;;5096809;28;20338;-69
2022/07/30 07:05:22;;;;;;;5.75;2.95;;;29.60;94.80;;;;;;5095830;28;20101;-69
2022/07/30 07:07:48;;;;;;;11.77;3.55;;;29.80;94.80;;;;;;5096607;28;20046;-69
2022/07/30 07:10:13;;;;;;;6.40;3.05;;;30.40;94.70;;;;;;5096325;28;20044;-68
2022/07/30 07:12:39;;;;;;;10.45;3.80;;;30.60;94.60;;;;;;5096868;28;20044;-69
2022/07/30 07:15:05;;;;;;;6.47;3.50;;;30.20;94.80;;;;;;5096274;28;20452;-69
2022/07/30 07:17:31;;;;;;;7.45;3.28;;;30.30;94.40;;;;;;5096027;28;20119;-69
2022/07/30 07:19:57;;;;;;;8.55;2.92;;;30.30;94.80;;;;;;5097041;28;20040;-69
2022/07/30 07:22:22;;;;;;;7.28;3.47;;;30.40;94.40;;;;;;5096295;28;20048;-68
2022/07/30 07:24:48;;;;;;;9.35;3.67;;;30.60;94.60;;;;;;5096372;28;20039;-69
2022/07/30 07:27:14;;;;;;;8.68;2.78;;;30.70;94.10;;;;;;5096304;28;20365;-68
2022/07/30 07:29:40;;;;;;;7.68;2.53;;;30.60;94.60;;;;;;5096351;28;20483;-68
2022/07/30 07:32:06;;;;;;;9.07;3.63;;;30.90;94.20;;;;;;5096354;28;20040;-68
2022/07/30 07:34:31;;;;;;;5.90;2.97;;;31.20;93.80;;;;;;5095510;28;20044;-69
2022/07/30 07:36:57;;;;;;;6.68;3.00;;;31.30;93.80;;;;;;5096308;28;20054;-69
2022/07/30 07:39:22;;;;;;;5.45;3.20;;;31.20;93.50;;;;;;5096112;28;20078;-69
2022/07/30 07:41:48;;;;;;;9.25;3.58;;;31.10;93.30;;;;;;5096171;28;20047;-70
2022/07/30 07:44:13;;;;;;;7.72;2.90;;;30.90;93.50;;;;;;5096156;28;20119;-69
2022/07/30 07:46:39;;;;;;;6.50;3.00;;;31.20;93.80;;;;;;5096108;28;20086;-70
2022/07/30 07:49:04;;;;;;;7.50;2.92;;;31.20;93.30;;;;;;5095952;28;20471;-68
2022/07/30 07:51:30;;;;;;;13.20;3.40;;;30.90;93.10;;;;;;5095551;28;20046;-70
2022/07/30 07:53:56;;;;;;;6.55;2.58;;;30.70;93.30;;;;;;5095883;28;20047;-69
2022/07/30 07:56:21;;;;;;;9.52;2.65;;;31.10;93.60;;;;;;5096006;28;20040;-69
2022/07/30 07:58:47;;;;;;;5.47;2.38;;;31.40;93.50;;;;;;5095561;28;20044;-69
2022/07/30 08:01:13;;;;;;;5.93;2.60;;;31.60;93.00;;;;;;5095685;28;20127;-69
2022/07/30 08:03:39;;;;;;;6.60;2.40;;;31.30;92.90;;;;;;5095533;28;20465;-69
2022/07/30 08:06:04;;;;;;;6.55;2.55;;;31.50;92.90;;;;;;5095378;28;20044;-69
2022/07/30 08:08:30;;;;;;;10.60;3.28;;;31.70;93.20;;;;;;5095497;28;20075;-69
2022/07/30 08:10:55;;;;;;;7.63;2.90;;;31.60;92.60;;;;;;5095455;28;20131;-68
2022/07/30 08:13:22;;;;;;;8.50;3.33;;;31.40;92.80;;;;;;5096107;28;20047;-69
2022/07/30 08:15:48;;;;;;;12.27;2.88;;;31.50;92.90;;;;;;5095298;28;20461;-69
2022/07/30 08:18:14;;;;;;;7.40;2.88;;;31.40;92.70;;;;;;5095965;28;20048;-68
2022/07/30 08:20:39;;;;;;;6.18;2.97;;;31.20;92.80;;;;;;5095286;28;20557;-69
2022/07/30 08:23:06;;;;;;;6.03;2.47;;;30.90;92.50;;;;;;5095159;28;20052;-69
2022/07/30 08:25:32;;;;;;;7.03;3.20;;;31.00;93.00;;;;;;5095312;28;20132;-69
2022/07/30 08:27:59;;;;;;;5.90;2.22;;;31.10;93.00;;;;;;5095742;28;20444;-69
2022/07/30 08:30:25;;;;;;;6.35;2.63;;;31.20;93.00;;;;;;5095770;28;20050;-69
2022/07/30 08:32:50;;;;;;;4.85;2.28;;;31.50;92.50;;;;;;5095226;28;20044;-68
2022/07/30 08:35:16;;;;;;;4.72;2.40;;;30.80;92.70;;;;;;5094955;28;20463;-69
2022/07/30 08:37:41;;;;;;;6.78;2.22;;;29.90;92.80;;;;;;5095511;28;20177;-68
2022/07/30 08:40:07;;;;;;;8.65;2.50;;;29.60;93.60;;;;;;5095304;28;20425;-69
2022/07/30 08:42:34;;;;;;;3.22;1.75;;;29.40;93.00;;;;;;5095049;28;20044;-70
2022/07/30 08:45:00;;;;;;;6.75;2.47;;;29.30;93.40;;;;;;5095061;28;20424;-69
2022/07/30 08:47:31;;;;;;;5.30;2.55;;;28.50;93.10;;;;;;5094265;28;20079;-69
2022/07/30 08:50:03;;;;;;;5.35;2.88;;;28.30;93.40;;;;;;5094918;28;20050;-68
2022/07/30 08:52:34;;;;;;;4.88;2.63;;;28.70;93.70;;;;;;5094631;28;20484;-69
2022/07/30 08:55:00;;;;;;;5.60;2.13;;;29.00;93.90;;;;;;5094888;28;20098;-68
2022/07/30 08:57:29;;;;;;;7.28;2.70;;;29.40;93.40;;;;;;5095474;28;20079;-68
2022/07/30 08:59:57;;;;;;;7.38;2.30;;;29.80;93.20;;;;;;5094820;28;20130;-68
2022/07/30 09:02:23;;;;;;;6.43;2.70;;;30.00;93.20;;;;;;5094808;28;20040;-68
2022/07/30 09:04:48;;;;;;;7.13;2.72;;;29.70;92.70;;;;;;5094848;28;20044;-69
2022/07/30 09:07:14;;;;;;;6.00;2.00;;;29.70;92.70;;;;;;5095395;28;20122;-68
2022/07/30 09:09:40;;;;;;;6.85;2.60;;;29.60;92.90;;;;;;5094702;28;20081;-67
2022/07/30 09:12:41;;;;;;;5.13;2.22;;;29.40;92.80;;;;;;5094644;28;20047;-69
2022/07/30 09:15:19;;;;;;;5.72;2.33;;;29.30;92.80;;;;;;5090495;28;20044;-69
2022/07/30 09:17:50;;;;;;;6.38;2.00;;;29.10;93.00;;;;;;5094914;28;20063;-69
2022/07/30 09:20:16;;;;;;;7.68;2.47;;;28.60;93.70;;;;;;5094735;28;20040;-69
2022/07/30 09:22:49;;;;;;;4.32;2.25;;;28.30;93.40;;;;;;5094461;28;20048;-69
2022/07/30 09:25:14;;;;;;;6.63;2.33;;;27.80;93.50;;;;;;5094572;28;20054;-69
2022/07/30 09:27:48;;;;;;;7.35;2.13;;;27.40;93.80;;;;;;5094552;28;20044;-69
2022/07/30 09:30:15;;;;;;;4.80;2.05;;;27.30;94.40;;;;;;5095023;28;20484;-69
2022/07/30 09:32:52;;;;;;;6.57;2.17;;;27.00;94.00;;;;;;5094828;28;20399;-68
2022/07/30 09:35:18;;;;;;;4.18;2.10;;;27.10;94.10;;;;;;5094883;28;20044;-69
2022/07/30 09:37:45;;;;;;;2.85;1.38;;;27.20;94.20;;;;;;5094415;28;20048;-69
2022/07/30 09:40:16;;;;;;;4.63;1.98;;;27.20;94.60;;;;;;5097745;28;20071;-69
2022/07/30 09:42:43;;;;;;;7.03;1.98;;;27.10;93.90;;;;;;5098941;28;20479;-68
2022/07/30 09:45:12;;;;;;;5.32;1.70;;;27.00;94.00;;;;;;5098358;28;20101;-68
2022/07/30 09:47:40;;;;;;;6.90;2.20;;;27.40;94.10;;;;;;5098039;28;20047;-68
2022/07/30 09:50:11;;;;;;;5.50;1.80;;;27.50;93.50;;;;;;5098299;28;20052;-69
2022/07/30 09:52:39;;;;;;;6.03;1.98;;;27.90;93.60;;;;;;5098065;28;20056;-68
2022/07/30 09:55:05;;;;;;;3.92;1.55;;;28.20;93.70;;;;;;5098658;28;20117;-69
2022/07/30 09:57:31;;;;;;;6.15;1.80;;;28.50;93.10;;;;;;5098082;28;20055;-69
2022/07/30 10:00:14;;;;;;;8.52;2.08;;;28.30;92.60;;;;;;5097939;28;20052;-68
2022/07/30 10:02:39;;;;;;;7.72;2.03;;;28.10;93.00;;;;;;5098120;28;20102;-69
2022/07/30 10:05:14;;;;;;;5.25;1.73;;;27.60;92.80;;;;;;5097854;28;20036;-68
2022/07/30 10:07:53;;;;;;;7.10;2.30;;;27.50;93.40;;;;;;5097922;28;20052;-69
2022/07/30 10:10:22;;;;;;;4.80;1.80;;;27.40;93.80;;;;;;5097694;28;20483;-69
2022/07/30 10:12:52;;;;;;;4.70;1.80;;;27.30;93.70;;;;;;5097640;28;20093;-69
2022/07/30 10:15:23;;;;;;;4.55;1.88;;;27.10;94.30;;;;;;5097739;28;20116;-68
2022/07/30 10:17:50;;;;;;;6.40;1.95;;;27.10;94.10;;;;;;5097748;28;20369;-71
2022/07/30 10:20:16;;;;;;;4.75;1.67;;;27.10;93.90;;;;;;5097675;28;20048;-68
2022/07/30 10:22:43;;;;;;;6.15;2.00;;;27.30;94.20;;;;;;5097491;28;20048;-69
2022/07/30 10:25:09;;;;;;;7.07;1.77;;;27.30;93.60;;;;;;5097552;28;20096;-68
2022/07/30 10:27:36;;;;;;;6.10;2.03;;;26.80;93.40;;;;;;5097554;28;20181;-68
2022/07/30 10:30:03;;;;;;;5.70;1.80;;;26.70;93.70;;;;;;5097383;28;20193;-69
2022/07/30 10:32:30;;;;;;;3.80;1.48;;;26.80;94.00;;;;;;5097807;28;20462;-69
2022/07/30 10:34:57;;;;;;;9.18;1.70;;;26.90;93.80;;;;;;5097302;28;20189;-69
2022/07/30 10:37:27;;;;;;;3.50;1.58;;;27.10;93.50;;;;;;5097175;28;20444;-69
2022/07/30 10:39:58;;;;;;;4.78;1.30;;;27.30;93.60;;;;;;5096871;28;20051;-69
2022/07/30 10:42:48;;;;;;;2.80;1.50;;;27.30;93.80;;;;;;5097770;28;20039;-68
2022/07/30 10:45:42;;;;;;;3.22;1.55;;;27.60;93.30;;;;;;5097349;28;20047;-68
2022/07/30 10:48:08;;;;;;;3.72;1.60;;;27.80;94.00;;;;;;5097055;28;20066;-70
2022/07/30 10:50:52;;;;;;;6.18;2.08;;;27.80;93.50;;;;;;5097501;28;20044;-69
2022/07/30 10:53:46;;;;;;;3.95;1.60;;;27.50;92.20;;;;;;5096804;28;20070;-69
2022/07/30 10:56:19;;;;;;;7.65;1.48;;;27.20;92.70;;;;;;5091241;28;20211;-68
2022/07/30 10:59:02;;;;;;;4.32;1.63;;;27.10;92.80;;;;;;5096724;28;20460;-69
2022/07/30 11:01:46;;;;;;;;;;;27.40;93.70;;;;;;5097184;28;20055;-69
2022/07/30 11:04:23;;;;;;;5.35;1.50;;;27.60;93.20;;;;;;5096866;28;19928;-69
2022/07/30 11:06:50;;;;;;;5.47;1.40;;;27.90;92.20;;;;;;5097136;28;20063;-69
2022/07/30 11:09:38;;;;;;;3.10;1.33;;;27.90;93.00;;;;;;5096725;28;20040;-69
2022/07/30 11:12:05;;;;;;;6.25;1.50;;;27.90;92.40;;;;;;5096711;28;20352;-69
2022/07/30 11:14:46;;;;;;;10.02;1.85;;;27.90;93.00;;;;;;5096601;28;20119;-69
2022/07/30 11:17:15;;;;;;;8.45;1.77;;;28.00;93.40;;;;;;5096755;28;20432;-69
2022/07/30 11:20:06;;;;;;;3.20;1.30;;;27.90;93.10;;;;;;5096863;28;20463;-68
2022/07/30 11:22:43;;;;;;;5.07;1.92;;;28.10;92.50;;;;;;5096511;28;20047;-69
2022/07/30 11:25:35;;;;;;;7.55;1.52;;;28.20;92.20;;;;;;5096318;28;20040;-69
2022/07/30 11:28:00;;;;;;;6.78;1.65;;;28.50;92.70;;;;;;5093264;28;20139;-69
2022/07/30 11:30:30;;;;;;;7.65;1.73;;;28.80;91.90;;;;;;5095257;28;20072;-70
2022/07/30 11:33:16;;;;;;;10.30;1.83;;;29.00;92.20;;;;;;5096855;28;20098;-68
2022/07/30 11:35:42;;;;;;;7.00;1.60;;;28.80;91.50;;;;;;5096026;28;20047;-69
2022/07/30 11:38:16;;;;;;;4.28;1.77;;;28.60;91.50;;;;;;5096331;28;20062;-69
2022/07/30 11:40:43;;;;;;;4.20;1.30;;;28.60;91.90;;;;;;5096075;28;20052;-69
2022/07/30 11:43:17;;;;;;;9.32;1.85;;;29.00;91.90;;;;;;5095889;28;20062;-69
2022/07/30 11:45:48;;;;;;;3.05;1.30;;;29.00;91.70;;;;;;5095993;28;20036;-68
2022/07/30 11:48:17;;;;;;;4.00;1.88;;;29.40;92.00;;;;;;5095852;28;20050;-69
2022/07/30 11:50:43;;;;;;;3.20;1.38;;;29.50;91.60;;;;;;5095879;28;20044;-69
2022/07/30 11:53:19;;;;;;;3.35;1.10;;;29.60;91.20;;;;;;5096740;28;20142;-69
2022/07/30 11:55:51;;;;;;;4.13;1.45;;;29.50;91.00;;;;;;5095602;28;20047;-69
2022/07/30 11:58:30;;;;;;;3.25;1.20;;;29.50;90.80;;;;;;5095779;28;20048;-69
2022/07/30 12:00:59;;;;;;;3.45;1.38;;;29.50;91.20;;;;;;5095529;28;20054;-68
2022/07/30 12:03:25;;;;;;;4.43;1.35;;;28.90;89.80;;;;;;5095325;28;20051;-69
2022/07/30 12:05:51;;;;;;;5.65;1.40;;;28.60;90.40;;;;;;5095567;28;20056;-69
2022/07/30 12:08:17;;;;;;;5.45;1.60;;;28.40;90.30;;;;;;5095579;28;20342;-69
2022/07/30 12:10:53;;;;;;;2.97;1.20;;;28.30;90.50;;;;;;5095977;28;20062;-69
2022/07/30 12:13:19;;;;;;;5.57;1.77;;;28.30;90.30;;;;;;5095368;28;20043;-68
2022/07/30 12:15:46;;;;;;;3.80;1.10;;;28.40;90.90;;;;;;5095462;28;20051;-70
2022/07/30 12:18:13;;;;;;;5.00;1.40;;;28.40;90.70;;;;;;5095551;28;20119;-69
2022/07/30 12:20:39;;;;;;;3.85;1.30;;;28.50;91.00;;;;;;5095397;28;20506;-69
2022/07/30 12:23:12;;;;;;;5.07;1.55;;;28.50;90.90;;;;;;5095558;28;20044;-69
2022/07/30 12:25:38;;;;;;;;;;;28.60;90.30;;;;;;5095805;28;20040;-69
2022/07/30 12:28:04;;;;;;;1.88;1.05;;;28.80;90.50;;;;;;5095300;28;19931;-69
2022/07/30 12:30:29;;;;;;;2.70;1.10;;;28.60;90.10;;;;;;5095231;28;20048;-69
2022/07/30 12:32:55;;;;;;;7.75;1.17;;;28.30;90.10;;;;;;5095145;28;20492;-68
2022/07/30 12:35:21;;;;;;;5.63;1.73;;;28.40;90.70;;;;;;5095066;28;20044;-69
2022/07/30 12:38:03;;;;;;;6.20;1.63;;;28.40;90.60;;;;;;5095195;28;20046;-69
2022/07/30 12:40:29;;;;;;;4.35;1.13;;;28.70;90.10;;;;;;5094068;28;20056;-68
2022/07/30 12:42:55;;;;;;;6.18;1.20;;;28.60;90.10;;;;;;5095140;28;20093;-69
2022/07/30 12:45:31;;;;;;;2.90;1.05;;;28.40;90.40;;;;;;5095041;28;20044;-68
2022/07/30 12:47:58;;;;;;;4.13;1.17;;;28.50;90.70;;;;;;5095261;28;20363;-69
2022/07/30 12:50:25;;;;;;;2.60;1.10;;;28.80;90.80;;;;;;5095002;28;20040;-68